sensor_id;sensor_type;location;lat;lon;timestamp;P1;durP1;ratioP1;P2;durP2;ratioP2
54454;SDS011;40364;52.270;10.546;2023-03-14T00:00:06;4.53;;;1.80;;
54454;SDS011;40364;52.270;10.546;2023-03-14T00:02:33;6.07;;;2.00;;
54454;SDS011;40364;52.270;10.546;2023-03-14T00:05:01;7.97;;;2.03;;
54454;SDS011;40364;52.270;10.546;2023-03-14T00:07:31;3.75;;;1.40;;
54454;SDS011;40364;52.270;10.546;2023-03-14T00:10:03;5.28;;;2.00;;
54454;SDS011;40364;52.270;10.546;2023-03-14T00:12:30;3.47;;;1.60;;
54454;SDS011;40364;52.270;10.546;2023-03-14T00:14:56;4.45;;;1.88;;
54454;SDS011;40364;52.270;10.546;2023-03-14T00:17:25;2.95;;;1.75;;
54454;SDS011;40364;52.270;10.546;2023-03-14T00:19:51;3.70;;;1.38;;
54454;SDS011;40364;52.270;10.546;2023-03-14T00:22:20;2.95;;;1.40;;
54454;SDS011;40364;52.270;10.546;2023-03-14T00:24:48;2.42;;;1.00;;
54454;SDS011;40364;52.270;10.546;2023-03-14T00:27:15;1.77;;;1.00;;
54454;SDS011;40364;52.270;10.546;2023-03-14T00:29:42;1.98;;;1.20;;
54454;SDS011;40364;52.270;10.546;2023-03-14T00:32:08;4.43;;;1.50;;
54454;SDS011;40364;52.270;10.546;2023-03-14T00:34:35;2.60;;;1.08;;
54454;SDS011;40364;52.270;10.546;2023-03-14T00:37:01;1.98;;;1.15;;
54454;SDS011;40364;52.270;10.546;2023-03-14T00:39:29;5.97;;;1.40;;
54454;SDS011;40364;52.270;10.546;2023-03-14T00:41:55;2.53;;;1.20;;
54454;SDS011;40364;52.270;10.546;2023-03-14T00:44:22;3.97;;;1.88;;
54454;SDS011;40364;52.270;10.546;2023-03-14T00:46:48;3.55;;;1.48;;
54454;SDS011;40364;52.270;10.546;2023-03-14T00:49:14;3.33;;;1.80;;
54454;SDS011;40364;52.270;10.546;2023-03-14T00:51:41;3.72;;;1.70;;
54454;SDS011;40364;52.270;10.546;2023-03-14T00:54:08;5.00;;;2.08;;
54454;SDS011;40364;52.270;10.546;2023-03-14T00:56:39;5.18;;;2.17;;
54454;SDS011;40364;52.270;10.546;2023-03-14T00:59:05;6.57;;;2.35;;
54454;SDS011;40364;52.270;10.546;2023-03-14T01:01:32;4.45;;;2.17;;
54454;SDS011;40364;52.270;10.546;2023-03-14T01:03:58;5.95;;;2.03;;
54454;SDS011;40364;52.270;10.546;2023-03-14T01:06:25;4.28;;;2.05;;
54454;SDS011;40364;52.270;10.546;2023-03-14T01:08:52;3.33;;;1.70;;
54454;SDS011;40364;52.270;10.546;2023-03-14T01:11:20;3.00;;;1.40;;
54454;SDS011;40364;52.270;10.546;2023-03-14T01:13:49;5.25;;;1.63;;
54454;SDS011;40364;52.270;10.546;2023-03-14T01:16:16;3.60;;;1.15;;
54454;SDS011;40364;52.270;10.546;2023-03-14T01:18:43;3.22;;;0.80;;
54454;SDS011;40364;52.270;10.546;2023-03-14T01:21:10;2.60;;;1.17;;
54454;SDS011;40364;52.270;10.546;2023-03-14T01:23:37;3.53;;;1.00;;
54454;SDS011;40364;52.270;10.546;2023-03-14T01:26:03;2.55;;;1.25;;
54454;SDS011;40364;52.270;10.546;2023-03-14T01:28:30;2.35;;;1.10;;
54454;SDS011;40364;52.270;10.546;2023-03-14T01:30:59;3.45;;;1.23;;
54454;SDS011;40364;52.270;10.546;2023-03-14T01:33:27;4.13;;;1.40;;
54454;SDS011;40364;52.270;10.546;2023-03-14T01:35:54;4.72;;;1.77;;
54454;SDS011;40364;52.270;10.546;2023-03-14T01:38:20;3.13;;;1.45;;
54454;SDS011;40364;52.270;10.546;2023-03-14T01:40:47;6.70;;;1.65;;
54454;SDS011;40364;52.270;10.546;2023-03-14T01:43:14;8.15;;;1.50;;
54454;SDS011;40364;52.270;10.546;2023-03-14T01:48:37;2.30;;;0.80;;
54454;SDS011;40364;52.270;10.546;2023-03-14T01:51:04;2.50;;;0.80;;
54454;SDS011;40364;52.270;10.546;2023-03-14T01:53:32;4.63;;;0.90;;
54454;SDS011;40364;52.270;10.546;2023-03-14T01:56:00;2.28;;;0.90;;
54454;SDS011;40364;52.270;10.546;2023-03-14T01:58:27;1.58;;;0.80;;
54454;SDS011;40364;52.270;10.546;2023-03-14T02:00:53;2.22;;;0.70;;
54454;SDS011;40364;52.270;10.546;2023-03-14T02:03:21;2.22;;;0.70;;
54454;SDS011;40364;52.270;10.546;2023-03-14T02:05:49;1.55;;;0.80;;
54454;SDS011;40364;52.270;10.546;2023-03-14T02:08:17;1.65;;;0.90;;
54454;SDS011;40364;52.270;10.546;2023-03-14T02:10:45;2.17;;;0.60;;
54454;SDS011;40364;52.270;10.546;2023-03-14T02:13:12;3.15;;;0.63;;
54454;SDS011;40364;52.270;10.546;2023-03-14T02:15:39;1.88;;;1.00;;
54454;SDS011;40364;52.270;10.546;2023-03-14T02:18:05;2.35;;;1.00;;
54454;SDS011;40364;52.270;10.546;2023-03-14T02:20:34;2.00;;;1.00;;
54454;SDS011;40364;52.270;10.546;2023-03-14T02:23:03;9.63;;;1.00;;
54454;SDS011;40364;52.270;10.546;2023-03-14T02:25:31;8.05;;;1.17;;
54454;SDS011;40364;52.270;10.546;2023-03-14T02:28:02;2.80;;;1.10;;
54454;SDS011;40364;52.270;10.546;2023-03-14T02:30:30;3.50;;;1.08;;
54454;SDS011;40364;52.270;10.546;2023-03-14T02:32:57;3.30;;;1.48;;
54454;SDS011;40364;52.270;10.546;2023-03-14T02:35:26;4.15;;;1.85;;
54454;SDS011;40364;52.270;10.546;2023-03-14T02:37:54;3.95;;;1.50;;
54454;SDS011;40364;52.270;10.546;2023-03-14T02:40:21;4.63;;;1.73;;
54454;SDS011;40364;52.270;10.546;2023-03-14T02:42:48;5.20;;;1.40;;
54454;SDS011;40364;52.270;10.546;2023-03-14T02:45:36;4.72;;;1.33;;
54454;SDS011;40364;52.270;10.546;2023-03-14T02:48:04;3.33;;;1.77;;
54454;SDS011;40364;52.270;10.546;2023-03-14T02:50:31;5.40;;;1.63;;
54454;SDS011;40364;52.270;10.546;2023-03-14T02:52:59;4.85;;;1.38;;
54454;SDS011;40364;52.270;10.546;2023-03-14T02:55:26;5.57;;;1.05;;
54454;SDS011;40364;52.270;10.546;2023-03-14T02:57:52;5.80;;;1.30;;
54454;SDS011;40364;52.270;10.546;2023-03-14T03:00:19;3.65;;;0.90;;
54454;SDS011;40364;52.270;10.546;2023-03-14T03:02:47;3.97;;;1.50;;
54454;SDS011;40364;52.270;10.546;2023-03-14T03:05:14;5.53;;;1.55;;
54454;SDS011;40364;52.270;10.546;2023-03-14T03:07:40;4.00;;;1.73;;
54454;SDS011;40364;52.270;10.546;2023-03-14T03:10:07;4.05;;;1.63;;
54454;SDS011;40364;52.270;10.546;2023-03-14T03:12:34;5.18;;;1.40;;
54454;SDS011;40364;52.270;10.546;2023-03-14T03:15:00;6.03;;;1.48;;
54454;SDS011;40364;52.270;10.546;2023-03-14T03:17:26;7.47;;;1.55;;
54454;SDS011;40364;52.270;10.546;2023-03-14T03:19:54;5.10;;;1.52;;
54454;SDS011;40364;52.270;10.546;2023-03-14T03:22:20;6.10;;;1.42;;
54454;SDS011;40364;52.270;10.546;2023-03-14T03:24:47;5.13;;;1.50;;
54454;SDS011;40364;52.270;10.546;2023-03-14T03:27:14;2.60;;;1.10;;
54454;SDS011;40364;52.270;10.546;2023-03-14T03:29:41;1.23;;;0.90;;
54454;SDS011;40364;52.270;10.546;2023-03-14T03:32:07;17.77;;;1.95;;
54454;SDS011;40364;52.270;10.546;2023-03-14T03:34:33;3.65;;;0.90;;
54454;SDS011;40364;52.270;10.546;2023-03-14T03:37:01;1.63;;;0.70;;
54454;SDS011;40364;52.270;10.546;2023-03-14T03:39:28;4.15;;;1.10;;
54454;SDS011;40364;52.270;10.546;2023-03-14T03:41:54;3.90;;;0.82;;
54454;SDS011;40364;52.270;10.546;2023-03-14T03:44:20;3.58;;;0.82;;
54454;SDS011;40364;52.270;10.546;2023-03-14T03:46:47;2.90;;;0.90;;
54454;SDS011;40364;52.270;10.546;2023-03-14T03:49:13;3.35;;;1.17;;
54454;SDS011;40364;52.270;10.546;2023-03-14T03:51:40;3.95;;;1.20;;
54454;SDS011;40364;52.270;10.546;2023-03-14T03:54:08;9.65;;;1.63;;
54454;SDS011;40364;52.270;10.546;2023-03-14T03:56:34;5.40;;;1.63;;
54454;SDS011;40364;52.270;10.546;2023-03-14T03:59:00;5.32;;;1.20;;
54454;SDS011;40364;52.270;10.546;2023-03-14T04:01:27;7.78;;;1.63;;
54454;SDS011;40364;52.270;10.546;2023-03-14T04:03:53;2.35;;;1.23;;
54454;SDS011;40364;52.270;10.546;2023-03-14T04:06:20;4.60;;;1.67;;
54454;SDS011;40364;52.270;10.546;2023-03-14T04:08:46;6.13;;;1.05;;
54454;SDS011;40364;52.270;10.546;2023-03-14T04:11:14;4.45;;;1.38;;
54454;SDS011;40364;52.270;10.546;2023-03-14T04:13:40;2.78;;;1.33;;
54454;SDS011;40364;52.270;10.546;2023-03-14T04:16:09;7.03;;;1.25;;
54454;SDS011;40364;52.270;10.546;2023-03-14T04:18:38;5.45;;;1.30;;
54454;SDS011;40364;52.270;10.546;2023-03-14T04:21:04;3.25;;;1.23;;
54454;SDS011;40364;52.270;10.546;2023-03-14T04:23:31;5.47;;;1.58;;
54454;SDS011;40364;52.270;10.546;2023-03-14T04:25:58;4.50;;;1.38;;
54454;SDS011;40364;52.270;10.546;2023-03-14T04:28:26;3.65;;;1.38;;
54454;SDS011;40364;52.270;10.546;2023-03-14T04:30:52;6.38;;;1.40;;
54454;SDS011;40364;52.270;10.546;2023-03-14T04:33:19;2.58;;;1.38;;
54454;SDS011;40364;52.270;10.546;2023-03-14T04:35:45;2.60;;;1.02;;
54454;SDS011;40364;52.270;10.546;2023-03-14T04:38:12;1.65;;;1.10;;
54454;SDS011;40364;52.270;10.546;2023-03-14T04:40:39;5.53;;;0.90;;
54454;SDS011;40364;52.270;10.546;2023-03-14T04:43:06;1.85;;;0.95;;
54454;SDS011;40364;52.270;10.546;2023-03-14T04:45:33;3.03;;;0.80;;
54454;SDS011;40364;52.270;10.546;2023-03-14T04:48:00;1.38;;;0.73;;
54454;SDS011;40364;52.270;10.546;2023-03-14T04:50:26;1.63;;;0.70;;
54454;SDS011;40364;52.270;10.546;2023-03-14T04:52:53;3.10;;;0.68;;
54454;SDS011;40364;52.270;10.546;2023-03-14T04:55:19;1.02;;;0.70;;
54454;SDS011;40364;52.270;10.546;2023-03-14T04:57:45;1.25;;;0.57;;
54454;SDS011;40364;52.270;10.546;2023-03-14T05:00:12;1.73;;;0.80;;
54454;SDS011;40364;52.270;10.546;2023-03-14T05:02:40;3.80;;;0.80;;
54454;SDS011;40364;52.270;10.546;2023-03-14T05:05:07;1.00;;;0.40;;
54454;SDS011;40364;52.270;10.546;2023-03-14T05:07:33;2.95;;;0.57;;
54454;SDS011;40364;52.270;10.546;2023-03-14T05:10:00;4.40;;;0.90;;
54454;SDS011;40364;52.270;10.546;2023-03-14T05:12:26;4.07;;;0.80;;
54454;SDS011;40364;52.270;10.546;2023-03-14T05:14:52;1.15;;;0.70;;
54454;SDS011;40364;52.270;10.546;2023-03-14T05:17:19;1.77;;;0.57;;
54454;SDS011;40364;52.270;10.546;2023-03-14T05:19:47;2.05;;;0.70;;
54454;SDS011;40364;52.270;10.546;2023-03-14T05:22:13;1.52;;;0.52;;
54454;SDS011;40364;52.270;10.546;2023-03-14T05:24:39;0.77;;;0.40;;
54454;SDS011;40364;52.270;10.546;2023-03-14T05:27:06;2.92;;;0.45;;
54454;SDS011;40364;52.270;10.546;2023-03-14T05:29:32;2.90;;;0.70;;
54454;SDS011;40364;52.270;10.546;2023-03-14T05:31:59;2.28;;;0.50;;
54454;SDS011;40364;52.270;10.546;2023-03-14T05:34:25;0.93;;;0.50;;
54454;SDS011;40364;52.270;10.546;2023-03-14T05:36:53;0.98;;;0.40;;
54454;SDS011;40364;52.270;10.546;2023-03-14T05:39:21;1.45;;;0.60;;
54454;SDS011;40364;52.270;10.546;2023-03-14T05:41:47;1.40;;;0.47;;
54454;SDS011;40364;52.270;10.546;2023-03-14T05:44:14;3.90;;;0.50;;
54454;SDS011;40364;52.270;10.546;2023-03-14T05:46:41;3.78;;;0.90;;
54454;SDS011;40364;52.270;10.546;2023-03-14T05:49:07;2.25;;;0.40;;
54454;SDS011;40364;52.270;10.546;2023-03-14T05:51:34;3.13;;;0.50;;
54454;SDS011;40364;52.270;10.546;2023-03-14T05:54:02;4.15;;;0.55;;
54454;SDS011;40364;52.270;10.546;2023-03-14T05:56:28;1.92;;;0.47;;
54454;SDS011;40364;52.270;10.546;2023-03-14T05:58:55;1.95;;;0.63;;
54454;SDS011;40364;52.270;10.546;2023-03-14T06:01:21;3.58;;;0.70;;
54454;SDS011;40364;52.270;10.546;2023-03-14T06:03:48;3.47;;;0.70;;
54454;SDS011;40364;52.270;10.546;2023-03-14T06:06:14;1.75;;;0.65;;
54454;SDS011;40364;52.270;10.546;2023-03-14T06:08:41;1.23;;;0.40;;
54454;SDS011;40364;52.270;10.546;2023-03-14T06:11:09;0.73;;;0.25;;
54454;SDS011;40364;52.270;10.546;2023-03-14T06:13:36;0.28;;;0.28;;
54454;SDS011;40364;52.270;10.546;2023-03-14T06:16:02;1.10;;;0.30;;
54454;SDS011;40364;52.270;10.546;2023-03-14T06:18:29;1.75;;;0.60;;
54454;SDS011;40364;52.270;10.546;2023-03-14T06:20:55;3.00;;;0.55;;
54454;SDS011;40364;52.270;10.546;2023-03-14T06:23:22;2.30;;;0.55;;
54454;SDS011;40364;52.270;10.546;2023-03-14T06:25:50;2.88;;;0.60;;
54454;SDS011;40364;52.270;10.546;2023-03-14T06:28:18;0.50;;;0.28;;
54454;SDS011;40364;52.270;10.546;2023-03-14T06:30:44;2.78;;;0.50;;
54454;SDS011;40364;52.270;10.546;2023-03-14T06:33:10;4.25;;;0.80;;
54454;SDS011;40364;52.270;10.546;2023-03-14T06:35:37;6.18;;;0.90;;
54454;SDS011;40364;52.270;10.546;2023-03-14T06:38:03;7.30;;;1.05;;
54454;SDS011;40364;52.270;10.546;2023-03-14T06:40:30;3.80;;;1.55;;
54454;SDS011;40364;52.270;10.546;2023-03-14T06:42:56;8.55;;;1.17;;
54454;SDS011;40364;52.270;10.546;2023-03-14T06:45:24;5.20;;;1.25;;
54454;SDS011;40364;52.270;10.546;2023-03-14T06:47:51;3.53;;;1.10;;
54454;SDS011;40364;52.270;10.546;2023-03-14T06:50:17;7.00;;;1.10;;
54454;SDS011;40364;52.270;10.546;2023-03-14T06:52:44;1.70;;;0.82;;
54454;SDS011;40364;52.270;10.546;2023-03-14T06:55:13;2.42;;;0.70;;
54454;SDS011;40364;52.270;10.546;2023-03-14T06:57:39;5.07;;;0.57;;
54454;SDS011;40364;52.270;10.546;2023-03-14T07:00:06;1.50;;;0.47;;
54454;SDS011;40364;52.270;10.546;2023-03-14T07:02:34;3.58;;;0.65;;
54454;SDS011;40364;52.270;10.546;2023-03-14T07:05:00;2.65;;;0.80;;
54454;SDS011;40364;52.270;10.546;2023-03-14T07:07:27;2.30;;;0.40;;
54454;SDS011;40364;52.270;10.546;2023-03-14T07:09:53;4.22;;;0.40;;
54454;SDS011;40364;52.270;10.546;2023-03-14T07:12:20;1.40;;;0.50;;
54454;SDS011;40364;52.270;10.546;2023-03-14T07:14:46;1.17;;;0.28;;
54454;SDS011;40364;52.270;10.546;2023-03-14T07:17:13;3.13;;;0.50;;
54454;SDS011;40364;52.270;10.546;2023-03-14T07:19:41;2.63;;;0.40;;
54454;SDS011;40364;52.270;10.546;2023-03-14T07:22:07;3.28;;;0.30;;
54454;SDS011;40364;52.270;10.546;2023-03-14T07:24:33;3.70;;;0.52;;
54454;SDS011;40364;52.270;10.546;2023-03-14T07:27:00;3.47;;;0.98;;
54454;SDS011;40364;52.270;10.546;2023-03-14T07:29:26;2.80;;;0.50;;
54454;SDS011;40364;52.270;10.546;2023-03-14T07:31:52;3.83;;;0.57;;
54454;SDS011;40364;52.270;10.546;2023-03-14T07:34:19;3.67;;;0.40;;
54454;SDS011;40364;52.270;10.546;2023-03-14T07:36:47;3.22;;;0.50;;
54454;SDS011;40364;52.270;10.546;2023-03-14T07:39:13;6.75;;;0.70;;
54454;SDS011;40364;52.270;10.546;2023-03-14T07:41:40;2.47;;;0.50;;
54454;SDS011;40364;52.270;10.546;2023-03-14T07:44:06;3.15;;;0.85;;
54454;SDS011;40364;52.270;10.546;2023-03-14T07:46:32;1.13;;;0.40;;
54454;SDS011;40364;52.270;10.546;2023-03-14T07:48:59;7.88;;;0.50;;
54454;SDS011;40364;52.270;10.546;2023-03-14T07:51:25;2.53;;;0.38;;
54454;SDS011;40364;52.270;10.546;2023-03-14T07:53:53;3.03;;;0.60;;
54454;SDS011;40364;52.270;10.546;2023-03-14T07:56:20;2.03;;;0.60;;
54454;SDS011;40364;52.270;10.546;2023-03-14T07:58:46;2.20;;;0.60;;
54454;SDS011;40364;52.270;10.546;2023-03-14T08:01:12;0.30;;;0.30;;
54454;SDS011;40364;52.270;10.546;2023-03-14T08:03:39;5.75;;;0.75;;
54454;SDS011;40364;52.270;10.546;2023-03-14T08:06:05;1.00;;;0.50;;
54454;SDS011;40364;52.270;10.546;2023-03-14T08:08:32;5.43;;;0.95;;
54454;SDS011;40364;52.270;10.546;2023-03-14T08:11:03;2.28;;;0.73;;
54454;SDS011;40364;52.270;10.546;2023-03-14T08:13:30;1.88;;;0.55;;
54454;SDS011;40364;52.270;10.546;2023-03-14T08:15:56;4.13;;;0.88;;
54454;SDS011;40364;52.270;10.546;2023-03-14T08:18:22;4.88;;;0.95;;
54454;SDS011;40364;52.270;10.546;2023-03-14T08:20:49;1.55;;;0.70;;
54454;SDS011;40364;52.270;10.546;2023-03-14T08:23:15;5.78;;;1.38;;
54454;SDS011;40364;52.270;10.546;2023-03-14T08:25:42;4.70;;;1.00;;
54454;SDS011;40364;52.270;10.546;2023-03-14T08:28:10;4.07;;;0.90;;
54454;SDS011;40364;52.270;10.546;2023-03-14T08:30:36;2.28;;;0.80;;
54454;SDS011;40364;52.270;10.546;2023-03-14T08:33:02;2.40;;;0.90;;
54454;SDS011;40364;52.270;10.546;2023-03-14T08:35:29;2.50;;;0.60;;
54454;SDS011;40364;52.270;10.546;2023-03-14T08:37:55;3.67;;;0.95;;
54454;SDS011;40364;52.270;10.546;2023-03-14T08:40:22;4.07;;;0.90;;
54454;SDS011;40364;52.270;10.546;2023-03-14T08:42:48;3.75;;;0.75;;
54454;SDS011;40364;52.270;10.546;2023-03-14T08:45:16;2.67;;;1.00;;
54454;SDS011;40364;52.270;10.546;2023-03-14T08:47:42;2.47;;;1.00;;
54454;SDS011;40364;52.270;10.546;2023-03-14T08:50:09;4.95;;;0.80;;
54454;SDS011;40364;52.270;10.546;2023-03-14T08:52:36;1.45;;;0.55;;
54454;SDS011;40364;52.270;10.546;2023-03-14T08:55:05;3.53;;;0.80;;
54454;SDS011;40364;52.270;10.546;2023-03-14T08:57:32;1.23;;;0.68;;
54454;SDS011;40364;52.270;10.546;2023-03-14T08:59:59;5.38;;;0.70;;
54454;SDS011;40364;52.270;10.546;2023-03-14T09:02:26;5.53;;;1.15;;
54454;SDS011;40364;52.270;10.546;2023-03-14T09:04:53;3.75;;;0.70;;
54454;SDS011;40364;52.270;10.546;2023-03-14T09:07:20;2.05;;;0.50;;
54454;SDS011;40364;52.270;10.546;2023-03-14T09:09:46;1.30;;;0.45;;
54454;SDS011;40364;52.270;10.546;2023-03-14T09:12:13;2.53;;;0.60;;
54454;SDS011;40364;52.270;10.546;2023-03-14T09:14:40;3.35;;;0.70;;
54454;SDS011;40364;52.270;10.546;2023-03-14T09:17:06;3.47;;;0.80;;
54454;SDS011;40364;52.270;10.546;2023-03-14T09:19:34;5.97;;;1.08;;
54454;SDS011;40364;52.270;10.546;2023-03-14T09:22:00;4.80;;;0.63;;
54454;SDS011;40364;52.270;10.546;2023-03-14T09:24:27;2.72;;;0.63;;
54454;SDS011;40364;52.270;10.546;2023-03-14T09:26:54;4.40;;;0.60;;
54454;SDS011;40364;52.270;10.546;2023-03-14T09:29:20;4.85;;;0.63;;
54454;SDS011;40364;52.270;10.546;2023-03-14T09:31:47;2.53;;;0.50;;
54454;SDS011;40364;52.270;10.546;2023-03-14T09:34:13;3.90;;;0.70;;
54454;SDS011;40364;52.270;10.546;2023-03-14T09:36:41;1.98;;;0.70;;
54454;SDS011;40364;52.270;10.546;2023-03-14T09:39:09;3.60;;;0.55;;
54454;SDS011;40364;52.270;10.546;2023-03-14T09:41:36;3.33;;;0.57;;
54454;SDS011;40364;52.270;10.546;2023-03-14T09:44:04;5.72;;;0.70;;
54454;SDS011;40364;52.270;10.546;2023-03-14T09:46:31;2.80;;;0.70;;
54454;SDS011;40364;52.270;10.546;2023-03-14T09:49:00;1.15;;;0.57;;
54454;SDS011;40364;52.270;10.546;2023-03-14T09:51:26;1.83;;;0.50;;
54454;SDS011;40364;52.270;10.546;2023-03-14T09:53:54;2.03;;;0.63;;
54454;SDS011;40364;52.270;10.546;2023-03-14T09:56:21;1.25;;;0.47;;
54454;SDS011;40364;52.270;10.546;2023-03-14T09:58:50;0.68;;;0.35;;
54454;SDS011;40364;52.270;10.546;2023-03-14T10:01:18;3.60;;;0.60;;
54454;SDS011;40364;52.270;10.546;2023-03-14T10:03:46;2.17;;;0.38;;
54454;SDS011;40364;52.270;10.546;2023-03-14T10:06:13;3.10;;;0.38;;
54454;SDS011;40364;52.270;10.546;2023-03-14T10:08:40;3.15;;;0.43;;
54454;SDS011;40364;52.270;10.546;2023-03-14T10:11:10;2.25;;;0.50;;
54454;SDS011;40364;52.270;10.546;2023-03-14T10:13:46;1.30;;;0.20;;
54454;SDS011;40364;52.270;10.546;2023-03-14T10:16:13;2.22;;;0.30;;
54454;SDS011;40364;52.270;10.546;2023-03-14T10:18:39;3.10;;;0.70;;
54454;SDS011;40364;52.270;10.546;2023-03-14T10:21:17;1.30;;;0.40;;
54454;SDS011;40364;52.270;10.546;2023-03-14T10:23:44;3.40;;;0.40;;
54454;SDS011;40364;52.270;10.546;2023-03-14T10:26:14;0.98;;;0.50;;
54454;SDS011;40364;52.270;10.546;2023-03-14T10:28:42;1.33;;;0.30;;
54454;SDS011;40364;52.270;10.546;2023-03-14T10:31:09;0.98;;;0.40;;
54454;SDS011;40364;52.270;10.546;2023-03-14T10:33:36;0.65;;;0.22;;
54454;SDS011;40364;52.270;10.546;2023-03-14T10:36:03;0.25;;;0.25;;
54454;SDS011;40364;52.270;10.546;2023-03-14T10:38:32;0.28;;;0.22;;
54454;SDS011;40364;52.270;10.546;2023-03-14T10:40:59;2.03;;;0.20;;
54454;SDS011;40364;52.270;10.546;2023-03-14T10:43:27;0.32;;;0.20;;
54454;SDS011;40364;52.270;10.546;2023-03-14T10:45:57;0.40;;;0.30;;
54454;SDS011;40364;52.270;10.546;2023-03-14T10:48:25;0.95;;;0.20;;
54454;SDS011;40364;52.270;10.546;2023-03-14T10:50:55;0.50;;;0.20;;
54454;SDS011;40364;52.270;10.546;2023-03-14T10:53:22;0.43;;;0.20;;
54454;SDS011;40364;52.270;10.546;2023-03-14T10:55:49;1.60;;;0.47;;
54454;SDS011;40364;52.270;10.546;2023-03-14T10:58:19;1.45;;;0.47;;
54454;SDS011;40364;52.270;10.546;2023-03-14T11:00:48;1.38;;;0.40;;
54454;SDS011;40364;52.270;10.546;2023-03-14T11:03:16;2.38;;;0.38;;
54454;SDS011;40364;52.270;10.546;2023-03-14T11:05:46;4.45;;;0.43;;
54454;SDS011;40364;52.270;10.546;2023-03-14T11:08:18;0.65;;;0.28;;
54454;SDS011;40364;52.270;10.546;2023-03-14T11:10:46;0.30;;;0.30;;
54454;SDS011;40364;52.270;10.546;2023-03-14T11:13:15;2.10;;;0.45;;
54454;SDS011;40364;52.270;10.546;2023-03-14T11:15:45;0.35;;;0.20;;
54454;SDS011;40364;52.270;10.546;2023-03-14T11:18:21;1.05;;;0.77;;
54454;SDS011;40364;52.270;10.546;2023-03-14T11:20:51;0.22;;;0.22;;
54454;SDS011;40364;52.270;10.546;2023-03-14T11:23:20;0.22;;;0.22;;
54454;SDS011;40364;52.270;10.546;2023-03-14T11:25:48;0.70;;;0.40;;
54454;SDS011;40364;52.270;10.546;2023-03-14T11:28:18;1.58;;;0.45;;
54454;SDS011;40364;52.270;10.546;2023-03-14T11:30:49;0.45;;;0.20;;
54454;SDS011;40364;52.270;10.546;2023-03-14T11:33:16;2.35;;;0.30;;
54454;SDS011;40364;52.270;10.546;2023-03-14T11:35:47;0.63;;;0.32;;
54454;SDS011;40364;52.270;10.546;2023-03-14T11:38:19;0.73;;;0.20;;
54454;SDS011;40364;52.270;10.546;2023-03-14T11:40:48;0.30;;;0.30;;
54454;SDS011;40364;52.270;10.546;2023-03-14T11:43:17;0.47;;;0.30;;
54454;SDS011;40364;52.270;10.546;2023-03-14T11:45:46;1.60;;;0.30;;
54454;SDS011;40364;52.270;10.546;2023-03-14T11:48:16;1.00;;;0.30;;
54454;SDS011;40364;52.270;10.546;2023-03-14T11:50:44;0.20;;;0.20;;
54454;SDS011;40364;52.270;10.546;2023-03-14T11:53:13;0.40;;;0.40;;
54454;SDS011;40364;52.270;10.546;2023-03-14T11:55:41;3.70;;;0.30;;
54454;SDS011;40364;52.270;10.546;2023-03-14T11:58:09;0.57;;;0.30;;
54454;SDS011;40364;52.270;10.546;2023-03-14T12:00:38;1.08;;;0.20;;
54454;SDS011;40364;52.270;10.546;2023-03-14T12:03:09;0.10;;;0.10;;
54454;SDS011;40364;52.270;10.546;2023-03-14T12:05:38;2.83;;;0.32;;
54454;SDS011;40364;52.270;10.546;2023-03-14T12:10:52;1.45;;;0.50;;
54454;SDS011;40364;52.270;10.546;2023-03-14T12:13:20;3.40;;;0.30;;
54454;SDS011;40364;52.270;10.546;2023-03-14T12:15:47;5.22;;;0.40;;
54454;SDS011;40364;52.270;10.546;2023-03-14T12:18:18;8.73;;;0.68;;
54454;SDS011;40364;52.270;10.546;2023-03-14T12:20:50;3.83;;;0.52;;
54454;SDS011;40364;52.270;10.546;2023-03-14T12:23:17;5.20;;;0.90;;
54454;SDS011;40364;52.270;10.546;2023-03-14T12:25:43;1.70;;;0.50;;
54454;SDS011;40364;52.270;10.546;2023-03-14T12:28:18;1.83;;;0.60;;
54454;SDS011;40364;52.270;10.546;2023-03-14T12:30:45;1.33;;;0.33;;
54454;SDS011;40364;52.270;10.546;2023-03-14T12:33:18;0.50;;;0.32;;
54454;SDS011;40364;52.270;10.546;2023-03-14T12:35:45;3.03;;;0.50;;
54454;SDS011;40364;52.270;10.546;2023-03-14T12:38:13;1.05;;;0.45;;
54454;SDS011;40364;52.270;10.546;2023-03-14T12:40:41;5.15;;;0.45;;
54454;SDS011;40364;52.270;10.546;2023-03-14T12:43:23;0.77;;;0.50;;
54454;SDS011;40364;52.270;10.546;2023-03-14T12:48:31;0.98;;;0.52;;
54454;SDS011;40364;52.270;10.546;2023-03-14T12:51:00;0.43;;;0.30;;
54454;SDS011;40364;52.270;10.546;2023-03-14T12:53:38;1.85;;;0.45;;
54454;SDS011;40364;52.270;10.546;2023-03-14T12:56:11;4.50;;;0.90;;
54454;SDS011;40364;52.270;10.546;2023-03-14T12:58:44;4.28;;;0.88;;
54454;SDS011;40364;52.270;10.546;2023-03-14T13:01:15;4.05;;;0.75;;
54454;SDS011;40364;52.270;10.546;2023-03-14T13:03:43;7.22;;;0.68;;
54454;SDS011;40364;52.270;10.546;2023-03-14T13:06:11;1.15;;;0.40;;
54454;SDS011;40364;52.270;10.546;2023-03-14T13:08:38;2.50;;;0.50;;
54454;SDS011;40364;52.270;10.546;2023-03-14T13:11:08;1.13;;;0.50;;
54454;SDS011;40364;52.270;10.546;2023-03-14T13:13:35;1.35;;;0.90;;
54454;SDS011;40364;52.270;10.546;2023-03-14T13:16:04;1.00;;;0.55;;
54454;SDS011;40364;52.270;10.546;2023-03-14T13:18:33;1.00;;;0.45;;
54454;SDS011;40364;52.270;10.546;2023-03-14T13:21:01;0.43;;;0.30;;
54454;SDS011;40364;52.270;10.546;2023-03-14T13:23:29;4.32;;;0.70;;
54454;SDS011;40364;52.270;10.546;2023-03-14T13:25:56;1.85;;;0.47;;
54454;SDS011;40364;52.270;10.546;2023-03-14T13:28:22;0.98;;;0.30;;
54454;SDS011;40364;52.270;10.546;2023-03-14T13:30:49;5.45;;;0.50;;
54454;SDS011;40364;52.270;10.546;2023-03-14T13:33:18;1.30;;;0.50;;
54454;SDS011;40364;52.270;10.546;2023-03-14T13:35:46;1.33;;;0.70;;
54454;SDS011;40364;52.270;10.546;2023-03-14T13:38:15;0.57;;;0.50;;
54454;SDS011;40364;52.270;10.546;2023-03-14T13:40:42;1.02;;;0.57;;
54454;SDS011;40364;52.270;10.546;2023-03-14T13:43:14;0.57;;;0.57;;
54454;SDS011;40364;52.270;10.546;2023-03-14T13:45:41;1.75;;;0.63;;
54454;SDS011;40364;52.270;10.546;2023-03-14T13:48:09;0.52;;;0.30;;
54454;SDS011;40364;52.270;10.546;2023-03-14T13:50:37;0.80;;;0.50;;
54454;SDS011;40364;52.270;10.546;2023-03-14T13:53:03;0.63;;;0.50;;
54454;SDS011;40364;52.270;10.546;2023-03-14T13:55:30;3.45;;;0.65;;
54454;SDS011;40364;52.270;10.546;2023-03-14T13:57:56;4.13;;;0.70;;
54454;SDS011;40364;52.270;10.546;2023-03-14T14:00:23;5.00;;;0.80;;
54454;SDS011;40364;52.270;10.546;2023-03-14T14:02:52;4.72;;;0.85;;
54454;SDS011;40364;52.270;10.546;2023-03-14T14:05:18;3.00;;;0.98;;
54454;SDS011;40364;52.270;10.546;2023-03-14T14:07:46;5.15;;;1.13;;
54454;SDS011;40364;52.270;10.546;2023-03-14T14:10:12;7.72;;;1.15;;
54454;SDS011;40364;52.270;10.546;2023-03-14T14:12:40;4.70;;;1.15;;
54454;SDS011;40364;52.270;10.546;2023-03-14T14:15:10;1.42;;;1.10;;
54454;SDS011;40364;52.270;10.546;2023-03-14T14:17:38;6.32;;;1.42;;
54454;SDS011;40364;52.270;10.546;2023-03-14T14:20:05;5.75;;;0.98;;
54454;SDS011;40364;52.270;10.546;2023-03-14T14:22:33;4.68;;;1.38;;
54454;SDS011;40364;52.270;10.546;2023-03-14T14:25:01;2.83;;;0.95;;
54454;SDS011;40364;52.270;10.546;2023-03-14T14:27:29;10.85;;;1.30;;
54454;SDS011;40364;52.270;10.546;2023-03-14T14:29:58;7.28;;;1.25;;
54454;SDS011;40364;52.270;10.546;2023-03-14T14:32:24;5.25;;;1.42;;
54454;SDS011;40364;52.270;10.546;2023-03-14T14:34:56;7.15;;;1.48;;
54454;SDS011;40364;52.270;10.546;2023-03-14T14:37:23;3.78;;;1.15;;
54454;SDS011;40364;52.270;10.546;2023-03-14T14:39:50;2.67;;;0.90;;
54454;SDS011;40364;52.270;10.546;2023-03-14T14:42:20;9.48;;;1.00;;